Time;durP1;ratioP1;P1;durP2;ratioP2;P2;SDS_P1;SDS_P2;PMS_P1;PMS_P2;Temp;Humidity;BMP_temperature;BMP_pressure;BME280_temperature;BME280_humidity;BME280_pressure;Samples;Min_cycle;Max_cycle;Signal;HPM_P1;HPM_P2
2021/12/16 00:08:33;;;;;;;1999.90;999.90;;;;;;;11.02;75.63;102584.25;15838199;28;20036;-58
2021/12/16 00:32:17;;;;;;;1999.90;999.90;;;;;;;11.33;74.13;102590.44;15871775;28;20051;-60
2021/12/16 00:39:50;;;;;;;1999.90;999.90;;;;;;;11.17;74.14;102588.91;15853119;28;20460;-59
2021/12/16 00:47:33;;;;;;;1999.90;999.90;;;;;;;10.75;75.56;102587.53;15831695;28;20043;-57
2021/12/16 00:55:28;;;;;;;1999.90;999.90;;;;;;;11.10;74.41;102582.81;15839395;28;20530;-60
2021/12/16 01:03:16;;;;;;;1999.90;999.90;;;;;;;10.80;75.41;102589.44;15848540;28;20043;-60
2021/12/16 01:34:52;;;;;;;1999.90;999.90;;;;;;;11.29;72.65;102606.13;15850882;28;20400;-59
2021/12/16 01:45:24;;;;;;;1999.90;999.90;;;;;;;11.36;72.04;102619.75;15851054;28;20115;-59
2021/12/16 01:50:48;;;;;;;1999.90;999.90;;;;;;;10.95;73.30;102597.75;15796372;28;20124;-59
2021/12/16 01:58:24;;;;;;;1999.90;999.90;;;;;;;11.26;71.90;102595.53;15828942;28;20046;-58
2021/12/16 02:06:24;;;;;;;1999.90;999.90;;;;;;;11.23;71.92;102602.53;15850395;28;20088;-59
2021/12/16 02:38:16;;;;;;;1999.90;999.90;;;;;;;11.02;73.59;102601.03;15818308;28;20142;-58
2021/12/16 02:53:51;;;;;;;1999.90;999.90;;;;;;;10.93;73.29;102599.97;15826962;27;20044;-59
2021/12/16 03:01:34;;;;;;;1999.90;999.90;;;;;;;10.81;72.88;102594.75;15817647;28;20084;-59
2021/12/16 03:09:15;;;;;;;1999.90;999.90;;;;;;;11.07;72.14;102600.16;15844825;28;20562;-57
2021/12/16 03:17:05;;;;;;;1999.90;999.90;;;;;;;11.02;72.08;102603.81;15844568;28;20058;-60
2021/12/16 03:25:05;;;;;;;1999.90;999.90;;;;;;;10.96;72.44;102627.34;15826252;28;20051;-56
2021/12/16 03:32:58;;;;;;;1999.90;999.90;;;;;;;10.97;72.26;102615.88;15841532;28;20142;-57
2021/12/16 03:40:35;;;;;;;1999.90;999.90;;;;;;;10.91;72.46;102619.81;15826127;28;20411;-59
2021/12/16 03:48:12;;;;;;;1999.90;999.90;;;;;;;10.76;72.45;102614.34;15843134;28;20059;-58
2021/12/16 03:55:48;;;;;;;1999.90;999.90;;;;;;;11.01;71.84;102624.50;15842265;28;20158;-59
2021/12/16 04:03:24;;;;;;;1999.90;999.90;;;;;;;11.10;71.28;102622.75;15825491;28;20051;-57
2021/12/16 04:11:18;;;;;;;1999.90;999.90;;;;;;;11.25;70.50;102619.00;15826257;28;20071;-57
2021/12/16 04:19:26;;;;;;;1999.90;999.90;;;;;;;11.26;70.59;102632.72;15841897;28;20407;-57
2021/12/16 04:27:07;;;;;;;1999.90;999.90;;;;;;;11.14;70.93;102625.78;15824217;28;20150;-57
2021/12/16 04:34:44;;;;;;;1999.90;999.90;;;;;;;10.98;70.94;102639.06;15855316;22;20454;-63
2021/12/16 04:42:24;;;;;;;1999.90;999.90;;;;;;;11.06;70.85;102643.19;15824908;28;20040;-64
2021/12/16 04:50:05;;;;;;;1999.90;999.90;;;;;;;10.65;72.73;102649.03;15757051;28;20131;-63
2021/12/16 04:57:45;;;;;;;1999.90;999.90;;;;;;;11.02;72.54;102653.25;15756435;28;20052;-61
2021/12/16 05:05:21;;;;;;;1999.90;999.90;;;;;;;10.77;73.22;102657.88;15781148;28;20126;-63
2021/12/16 05:12:59;;;;;;;1999.90;999.90;;;;;;;10.81;73.07;102672.09;15776943;28;20540;-62
2021/12/16 05:20:45;;;;;;;1999.90;999.90;;;;;;;10.89;73.24;102655.59;15793749;28;20036;-66
2021/12/16 05:28:22;;;;;;;1999.90;999.90;;;;;;;10.90;73.39;102685.19;15781732;28;20101;-65
2021/12/16 05:36:01;;;;;;;1999.90;999.90;;;;;;;10.72;75.44;102694.19;15774720;28;20294;-62
2021/12/16 05:43:36;;;;;;;1999.90;999.90;;;;;;;10.67;76.82;102697.03;15775108;28;20047;-63
2021/12/16 05:51:12;;;;;;;1999.90;999.90;;;;;;;10.55;77.55;102694.56;15790297;28;20036;-64
2021/12/16 05:58:48;;;;;;;1999.90;999.90;;;;;;;10.56;78.26;102701.00;15764660;28;20143;-63
2021/12/16 06:06:22;;;;;;;1999.90;999.90;;;;;;;10.40;79.24;102703.81;15780431;28;20475;-64
2021/12/16 06:14:09;;;;;;;1999.90;999.90;;;;;;;10.62;78.88;102723.00;15750716;28;20126;-65
2021/12/16 06:29:54;;;;;;;1999.90;999.90;;;;;;;10.53;79.45;102735.06;15765990;28;20140;-64
2021/12/16 06:37:27;;;;;;;1999.90;999.90;;;;;;;10.52;79.52;102738.94;15755063;28;20064;-65
2021/12/16 06:45:06;;;;;;;1999.90;999.90;;;;;;;10.39;80.18;102729.22;15764141;28;20532;-65
2021/12/16 06:52:45;;;;;;;1999.90;999.90;;;;;;;9.96;81.45;102747.41;15725892;28;20329;-65
2021/12/16 07:00:34;;;;;;;1999.90;999.90;;;;;;;10.37;80.75;102740.66;15758142;28;20044;-63
2021/12/16 07:08:18;;;;;;;1999.90;999.90;;;;;;;10.35;80.81;102748.50;15770154;28;20043;-64
2021/12/16 07:15:52;;;;;;;1999.90;999.90;;;;;;;10.53;79.89;102769.41;15786802;28;20058;-64
2021/12/16 07:23:33;;;;;;;1999.90;999.90;;;;;;;10.72;79.30;102789.16;15785749;28;20040;-65
2021/12/16 07:31:11;;;;;;;1999.90;999.90;;;;;;;10.83;78.84;102796.38;15797580;28;20045;-65
2021/12/16 07:38:48;;;;;;;1999.90;999.90;;;;;;;10.41;80.23;102788.38;15723514;28;20032;-65
2021/12/16 07:46:26;;;;;;;1999.90;999.90;;;;;;;10.86;78.76;102817.34;15788191;28;20081;-64
2021/12/16 07:54:01;;;;;;;1999.90;999.90;;;;;;;10.34;80.40;102822.19;15802602;28;20131;-63
2021/12/16 08:01:35;;;;;;;1999.90;999.90;;;;;;;10.56;80.13;102830.25;15802770;28;20090;-66
2021/12/16 08:09:10;;;;;;;1999.90;999.90;;;;;;;10.93;79.27;102826.22;15803872;28;20101;-63
2021/12/16 08:16:45;;;;;;;1999.90;999.90;;;;;;;10.85;79.09;102838.84;15767901;28;20514;-63
2021/12/16 08:24:18;;;;;;;1999.90;999.90;;;;;;;10.29;81.28;102824.97;15807239;28;20136;-62
2021/12/16 08:32:16;;;;;;;1999.90;999.90;;;;;;;10.86;80.12;102837.72;15813692;28;20044;-61
2021/12/16 08:39:59;;;;;;;1999.90;999.90;;;;;;;10.87;79.97;102855.31;15772048;28;20086;-65
2021/12/16 08:47:48;;;;;;;1999.90;999.90;;;;;;;10.83;79.90;102848.59;15799750;28;20044;-66
2021/12/16 08:55:26;;;;;;;1999.90;999.90;;;;;;;10.94;79.65;102869.81;15733106;28;20051;-66
2021/12/16 09:03:01;;;;;;;1999.90;999.90;;;;;;;10.73;80.33;102857.00;15808284;28;20036;-65
2021/12/16 09:10:36;;;;;;;1999.90;999.90;;;;;;;10.98;79.81;102876.50;15760750;28;20123;-66
2021/12/16 09:18:11;;;;;;;1999.90;999.90;;;;;;;10.91;80.10;102893.56;15736275;28;20068;-66
2021/12/16 09:25:47;;;;;;;1999.90;999.90;;;;;;;11.04;79.96;102905.25;15744629;28;20058;-65
2021/12/16 09:33:42;;;;;;;;;;;;;;;11.33;79.46;102919.44;15807284;28;20101;-65
2021/12/16 09:41:14;;;;;;;1999.90;999.90;;;;;;;11.07;79.41;102894.38;15793010;28;20421;-64
2021/12/16 09:48:49;;;;;;;1999.90;999.90;;;;;;;11.15;80.12;102893.78;15780664;28;20123;-65
2021/12/16 09:56:23;;;;;;;1999.90;999.90;;;;;;;11.25;79.24;102927.31;15744363;28;20066;-64
2021/12/16 10:04:03;;;;;;;1999.90;999.90;;;;;;;11.33;79.64;102933.41;15759887;28;20119;-64
2021/12/16 10:11:43;;;;;;;1999.90;999.90;;;;;;;11.48;78.48;102905.41;15737797;28;20127;-64
2021/12/16 10:19:18;;;;;;;1999.90;999.90;;;;;;;11.62;78.16;102900.03;15745319;28;20044;-66
2021/12/16 10:27:06;;;;;;;1999.90;999.90;;;;;;;11.42;79.14;102893.41;15758770;28;20075;-64
2021/12/16 10:34:40;;;;;;;1999.90;999.90;;;;;;;11.59;78.45;102909.81;15781110;28;20048;-66
2021/12/16 10:42:18;;;;;;;1999.90;999.90;;;;;;;11.57;77.89;102918.50;15754430;28;20147;-65
2021/12/16 10:49:52;;;;;;;1999.90;999.90;;;;;;;11.83;77.37;102916.44;15740086;28;20068;-66
2021/12/16 10:57:27;;;;;;;1999.90;999.90;;;;;;;11.81;77.26;102926.25;15751368;28;20068;-65
2021/12/16 11:05:11;;;;;;;1999.90;999.90;;;;;;;11.78;77.70;102933.22;15750984;28;20048;-66
2021/12/16 11:12:52;;;;;;;1999.90;999.90;;;;;;;11.97;76.04;102932.56;15767312;28;20723;-66
2021/12/16 11:20:38;;;;;;;1999.90;999.90;;;;;;;12.14;75.98;102939.47;15769385;28;20068;-65
2021/12/16 11:28:16;;;;;;;1999.90;999.90;;;;;;;12.06;75.15;102948.47;15767145;28;20417;-65
2021/12/16 11:36:00;;;;;;;1999.90;999.90;;;;;;;12.15;74.57;102940.31;15762622;28;20048;-66
2021/12/16 11:43:47;;;;;;;1999.90;999.90;;;;;;;12.09;74.21;102933.94;15746341;28;20135;-65
2021/12/16 11:51:24;;;;;;;1999.90;999.90;;;;;;;12.07;73.59;102929.72;15759874;28;20064;-66
2021/12/16 11:58:56;;;;;;;1999.90;999.90;;;;;;;12.07;71.30;102936.16;15757941;28;20045;-65
2021/12/16 12:06:32;;;;;;;1999.90;999.90;;;;;;;12.84;69.20;102938.38;15784011;28;20044;-65
2021/12/16 12:14:07;;;;;;;1999.90;999.90;;;;;;;12.57;70.06;102953.72;15776196;28;20067;-65
2021/12/16 12:21:45;;;;;;;1999.90;999.90;;;;;;;12.71;69.14;102968.75;15735228;28;20078;-65
2021/12/16 12:29:21;;;;;;;1999.90;999.90;;;;;;;12.57;69.67;102978.09;15773344;28;20409;-66
2021/12/16 12:36:57;;;;;;;1999.90;999.90;;;;;;;12.36;67.54;102983.84;15789450;28;20581;-66
2021/12/16 12:44:30;;;;;;;1999.90;999.90;;;;;;;12.33;67.98;102973.22;15778767;28;20040;-66
2021/12/16 12:52:08;;;;;;;1999.90;999.90;;;;;;;13.06;65.44;102974.31;15774256;28;20051;-65
2021/12/16 12:59:42;;;;;;;1999.90;999.90;;;;;;;12.95;65.47;102977.19;15757040;28;20405;-65
2021/12/16 13:07:16;;;;;;;;;;;;;;;12.69;66.95;102965.38;15777263;28;20036;-66
2021/12/16 13:15:03;;;;;;;1999.90;999.90;;;;;;;13.75;62.77;102968.19;15774601;28;19924;-65
2021/12/16 13:30:40;;;;;;;1999.90;999.90;;;;;;;13.93;62.33;102960.13;15781869;28;20308;-65
2021/12/16 13:38:15;;;;;;;1999.90;999.90;;;;;;;12.28;66.43;102939.66;15797516;28;20044;-65
2021/12/16 13:46:05;;;;;;;1999.90;999.90;;;;;;;11.67;69.14;102941.94;15805392;28;20036;-64
2021/12/16 14:02:01;;;;;;;1999.90;999.90;;;;;;;11.53;70.40;102964.09;15780816;28;20050;-64
2021/12/16 14:09:36;;;;;;;1999.90;999.90;;;;;;;11.51;69.98;102966.34;15759388;28;20051;-65
2021/12/16 14:17:39;;;;;;;1999.90;999.90;;;;;;;11.25;70.60;102980.41;15766293;28;20373;-65
2021/12/16 14:25:29;;;;;;;;;;;;;;;10.76;71.38;102993.31;15764651;28;20433;-64
2021/12/16 14:41:08;;;;;;;1999.90;999.90;;;;;;;10.53;72.05;102995.53;15752249;28;20044;-63
2021/12/16 14:48:54;;;;;;;1999.90;999.90;;;;;;;10.49;72.44;102999.13;15766717;28;20041;-65
2021/12/16 14:56:31;;;;;;;1999.90;999.90;;;;;;;10.44;72.84;103036.28;15728000;28;20421;-66
2021/12/16 15:04:12;;;;;;;1999.90;999.90;;;;;;;10.20;72.74;103047.03;15725514;28;20623;-66
2021/12/16 15:11:56;;;;;;;1999.90;999.90;;;;;;;9.91;74.00;103043.06;15724402;28;20068;-65
2021/12/16 15:36:35;;;;;;;1999.90;999.90;;;;;;;9.77;74.41;103043.53;15803183;28;20051;-66
2021/12/16 15:44:21;;;;;;;1999.90;999.90;;;;;;;9.60;75.17;103058.78;15785274;28;20064;-64
2021/12/16 15:52:16;;;;;;;1999.90;999.90;;;;;;;9.40;75.58;103084.56;15792515;28;20045;-65
2021/12/16 16:00:22;;;;;;;1999.90;999.90;;;;;;;9.44;76.20;103085.72;15769717;28;20559;-64
2021/12/16 16:07:59;;;;;;;1999.90;999.90;;;;;;;9.34;76.19;103103.19;15782284;28;20072;-65
2021/12/16 16:15:33;;;;;;;1999.90;999.90;;;;;;;9.19;76.81;103137.34;15764154;28;20055;-66
2021/12/16 16:23:08;;;;;;;1999.90;999.90;;;;;;;9.15;76.27;103133.41;15767360;28;20444;-64
2021/12/16 16:30:50;;;;;;;1999.90;999.90;;;;;;;9.02;76.00;103135.78;15773507;28;20809;-64
2021/12/16 16:38:30;;;;;;;1999.90;999.90;;;;;;;8.97;76.17;103125.44;15760342;28;20040;-64
2021/12/16 16:46:09;;;;;;;1999.90;999.90;;;;;;;8.92;76.51;103125.38;15730252;28;20159;-65
2021/12/16 16:53:55;;;;;;;1999.90;999.90;;;;;;;8.80;76.63;103133.06;15778433;28;20044;-65
2021/12/16 17:01:35;;;;;;;1999.90;999.90;;;;;;;8.55;77.61;103139.22;15759232;28;20048;-64
2021/12/16 17:09:08;;;;;;;1999.90;999.90;;;;;;;8.63;77.28;103141.50;15766218;28;20490;-63
2021/12/16 17:24:37;;;;;;;1999.90;999.90;;;;;;;8.47;77.39;103165.53;15771071;28;20040;-65
2021/12/16 17:32:14;;;;;;;1999.90;999.90;;;;;;;8.37;77.60;103157.06;15766655;28;20033;-65
2021/12/16 17:39:52;;;;;;;1999.90;999.90;;;;;;;8.34;77.49;103174.25;15766176;28;20064;-64
2021/12/16 17:47:31;;;;;;;1999.90;999.90;;;;;;;8.20;78.50;103168.22;15751435;28;20072;-64
2021/12/16 17:55:09;;;;;;;1999.90;999.90;;;;;;;8.22;77.97;103179.91;15751989;28;20071;-66
2021/12/16 18:02:47;;;;;;;1999.90;999.90;;;;;;;8.04;78.52;103183.88;15761942;28;20040;-66
2021/12/16 18:10:30;;;;;;;1999.90;999.90;;;;;;;7.99;78.93;103178.22;15778873;28;20048;-63
2021/12/16 18:18:22;;;;;;;1999.90;999.90;;;;;;;7.91;79.01;103173.09;15752696;28;20074;-67
2021/12/16 18:26:01;;;;;;;1999.90;999.90;;;;;;;7.78;80.51;103181.78;15769473;28;20317;-64
2021/12/16 18:33:41;;;;;;;1999.90;999.90;;;;;;;7.93;80.51;103173.69;15753454;28;20044;-66
2021/12/16 18:41:20;;;;;;;1999.90;999.90;;;;;;;7.84;80.76;103154.94;15747944;28;20064;-66
2021/12/16 18:49:21;;;;;;;1999.90;999.90;;;;;;;7.82;81.09;103164.38;15757441;28;20407;-65
2021/12/16 18:57:03;;;;;;;1999.90;999.90;;;;;;;7.80;80.52;103186.00;15777847;28;20465;-65
2021/12/16 19:04:55;;;;;;;1999.90;999.90;;;;;;;8.00;80.38;103210.47;15763360;28;20079;-62
2021/12/16 19:12:35;;;;;;;1999.90;999.90;;;;;;;7.78;81.21;103207.66;15760280;28;20041;-65
2021/12/16 19:20:14;;;;;;;1999.90;999.90;;;;;;;7.67;82.00;103196.63;15762266;28;20128;-65
2021/12/16 19:27:55;;;;;;;1999.90;999.90;;;;;;;7.87;81.37;103219.19;15741216;28;20052;-66
2021/12/16 19:35:47;;;;;;;1999.90;999.90;;;;;;;7.95;80.56;103217.94;15742741;28;20504;-66
2021/12/16 19:43:35;;;;;;;1999.90;999.90;;;;;;;7.84;81.17;103216.09;15773974;28;20054;-64
2021/12/16 19:51:17;;;;;;;1999.90;999.90;;;;;;;7.69;81.26;103202.75;15733100;28;20044;-64
2021/12/16 19:58:51;;;;;;;1999.90;999.90;;;;;;;7.73;81.18;103218.69;15745090;28;20052;-66
2021/12/16 20:06:27;;;;;;;1999.90;999.90;;;;;;;7.60;81.60;103215.41;15734633;28;20066;-64
2021/12/16 20:14:00;;;;;;;1999.90;999.90;;;;;;;7.60;82.62;103213.47;15770407;28;20101;-64
2021/12/16 20:21:39;;;;;;;1999.90;999.90;;;;;;;7.73;82.80;103218.69;16128696;22;20462;-63
2021/12/16 20:29:16;;;;;;;1999.90;999.90;;;;;;;7.83;83.30;103220.81;15814347;28;20078;-70
2021/12/16 20:36:54;;;;;;;1999.90;999.90;;;;;;;7.81;83.86;103228.53;15822585;22;20497;-75
2021/12/16 20:44:30;;;;;;;1999.90;999.90;;;;;;;8.10;82.50;103230.09;15800442;28;20056;-76
2021/12/16 20:52:15;;;;;;;1999.90;999.90;;;;;;;7.91;83.60;103225.06;15675654;28;20033;-76
2021/12/16 20:59:56;;;;;;;1999.90;999.90;;;;;;;8.15;81.81;103212.66;15731718;28;20044;-76
2021/12/16 21:07:40;;;;;;;1999.90;999.90;;;;;;;8.20;81.82;103209.94;15673921;28;20073;-76
2021/12/16 21:15:18;;;;;;;1999.90;999.90;;;;;;;8.08;81.75;103196.16;15664686;28;20055;-76
2021/12/16 21:22:53;;;;;;;1999.90;999.90;;;;;;;8.14;81.71;103208.19;15678280;28;20077;-76
2021/12/16 21:30:27;;;;;;;1999.90;999.90;;;;;;;8.09;81.43;103197.84;15673262;28;20036;-75
2021/12/16 21:38:05;;;;;;;1999.90;999.90;;;;;;;8.16;81.31;103194.03;15699160;28;20550;-75
2021/12/16 21:45:38;;;;;;;1999.90;999.90;;;;;;;8.01;81.58;103194.63;15683161;28;20060;-75
2021/12/16 21:53:16;;;;;;;1999.90;999.90;;;;;;;8.04;81.24;103183.03;15702837;28;20114;-74
2021/12/16 22:00:54;;;;;;;1999.90;999.90;;;;;;;7.71;82.17;103193.09;15746317;28;20059;-74
2021/12/16 22:08:28;;;;;;;1999.90;999.90;;;;;;;7.91;81.59;103195.31;15741705;28;20127;-74
2021/12/16 22:16:02;;;;;;;1999.90;999.90;;;;;;;7.86;81.54;103200.00;15708645;28;20045;-75
2021/12/16 22:23:37;;;;;;;1999.90;999.90;;;;;;;7.57;82.60;103202.84;15752642;28;20024;-76
2021/12/16 22:31:11;;;;;;;1999.90;999.90;;;;;;;7.49;81.66;103192.16;15748256;28;20044;-74
2021/12/16 22:38:48;;;;;;;1999.90;999.90;;;;;;;7.81;81.81;103220.19;15676090;23;20037;-65
2021/12/16 22:46:29;;;;;;;1999.90;999.90;;;;;;;7.71;81.58;103212.56;15649153;28;20053;-66
2021/12/16 22:54:16;;;;;;;1999.90;999.90;;;;;;;8.02;80.98;103225.00;15636598;28;20091;-65
2021/12/16 23:01:52;;;;;;;1999.90;999.90;;;;;;;7.88;81.26;103218.09;15634314;28;20121;-64
2021/12/16 23:09:29;;;;;;;1999.90;999.90;;;;;;;7.89;81.13;103225.31;15632468;28;20124;-65
2021/12/16 23:17:13;;;;;;;1999.90;999.90;;;;;;;7.91;80.50;103241.75;15628538;28;20421;-62
2021/12/16 23:24:47;;;;;;;1999.90;999.90;;;;;;;7.87;80.54;103243.38;15610624;28;20124;-63
2021/12/16 23:32:22;;;;;;;1999.90;999.90;;;;;;;7.67;81.31;103228.03;15637390;28;20044;-65
2021/12/16 23:40:14;;;;;;;1999.90;999.90;;;;;;;7.72;81.02;103230.06;15624620;28;20076;-65
2021/12/16 23:55:41;;;;;;;1999.90;999.90;;;;;;;7.84;80.47;103235.53;15656758;28;20049;-64
